Private Wetterstation Nrnberg - Katzwang
Wetterdaten: September 2015
Datum Temp. A. Feuchte A. Luftdruck Regen Wind Richtung Taupunkt Windchill Windben
01.09.2015 20,8 C 69 % 1010 hPa 1,0 l/m 7,5 km/h W-NW 14,1 C 20,5 C 14,1 km/h
02.09.2015 17,7 C 69 % 1014 hPa 0,0 l/m 8,3 km/h NO 11,5 C 16,4 C 6,8 km/h
03.09.2015 15,5 C 80 % 1012 hPa 1,6 l/m 5,1 km/h O-NO 12,1 C 14,1 C 4,2 km/h
04.09.2015 14,9 C 61 % 1013 hPa 0,5 l/m 0,0 km/h NO 7,0 C 14,9 C 0,0 km/h
05.09.2015 12,9 C 72 % 1014 hPa 0,0 l/m 8,1 km/h W-NW 7,7 C 11,2 C 6,8 km/h
06.09.2015 12,7 C 66 % 1020 hPa 1,0 l/m 6,9 km/h W-NW 6,4 C 11,1 C 5,7 km/h
07.09.2015 12,4 C 81 % 1022 hPa 0,5 l/m 3,5 km/h W-NW 9,2 C 11,5 C 2,9 km/h
08.09.2015 14,1 C 68 % 1021 hPa 0,0 l/m 6,7 km/h NO 8,0 C 12,7 C 5,5 km/h
09.09.2015 13,6 C 68 % 1019 hPa 0,0 l/m 5,1 km/h N-NO 7,6 C 12,6 C 4,2 km/h
10.09.2015 13,0 C 64 % 1018 hPa 0,0 l/m 5,3 km/h O 6,0 C 12,2 C 4,4 km/h
11.09.2015 13,2 C 67 % 1015 hPa 0,0 l/m 0,0 km/h O-NO 6,7 C 13,2 C 0,0 km/h
12.09.2015 19,0 C 61 % 1014 hPa 0,0 l/m 6,9 km/h S-SO 10,7 C 18,6 C 5,7 km/h
13.09.2015 19,1 C 68 % 1008 hPa 0,0 l/m 3,8 km/h S 12,3 C 18,9 C 9,4 km/h
14.09.2015 15,7 C 80 % 1006 hPa 3,6 l/m 10,8 km/h W-SW 12,3 C 14,0 C 8,9 km/h
15.09.2015 15,7 C 71 % 1007 hPa 0,5 l/m 5,9 km/h S 10,2 C 14,4 C 4,9 km/h
16.09.2015 17,9 C 72 % 999 hPa 0,0 l/m 5,3 km/h S 12,5 C 16,5 C 4,4 km/h
17.09.2015 14,2 C 79 % 1006 hPa 0,5 l/m 11,4 km/h N-NW 10,5 C 12,5 C 12,3 km/h
18.09.2015 14,1 C 79 % 1016 hPa 0,5 l/m 5,4 km/h S-SO 10,3 C 13,6 C 4,5 km/h
19.09.2015 11,4 C 84 % 1019 hPa 2,6 l/m 2,5 km/h S-SO 8,7 C 10,9 C 2,1 km/h
20.09.2015 10,5 C 79 % 1021 hPa 0,0 l/m 4,1 km/h W-NW 6,9 C 9,5 C 3,4 km/h
21.09.2015 12,3 C 71 % 1013 hPa 0,0 l/m 2,2 km/h S-SW 6,5 C 12,1 C 1,8 km/h
22.09.2015 12,4 C 79 % 1004 hPa 2,1 l/m 6,8 km/h S 8,6 C 11,4 C 5,7 km/h
23.09.2015 11,8 C 82 % 1011 hPa 2,1 l/m 0,0 km/h W 8,7 C 11,8 C 0,0 km/h
24.09.2015 12,2 C 78 % 1018 hPa 0,0 l/m 0,0 km/h S-SW 8,2 C 12,2 C 0,0 km/h
25.09.2015 13,5 C 77 % 1019 hPa 0,0 l/m 0,6 km/h N-NW 9,2 C 13,5 C 0,5 km/h
26.09.2015 13,4 C 73 % 1022 hPa 0,0 l/m 9,1 km/h NO 8,6 C 11,3 C 7,6 km/h
27.09.2015 11,5 C 68 % 1028 hPa 0,0 l/m 13,8 km/h O 5,5 C 8,0 C 18,0 km/h
28.09.2015 10,3 C 68 % 1031 hPa 0,0 l/m 15,1 km/h O-NO 4,4 C 5,7 C 12,5 km/h
29.09.2015 10,3 C 64 % 1030 hPa 0,0 l/m 2,5 km/h O 3,4 C 9,9 C 2,1 km/h
30.09.2015 10,2 C 59 % 1028 hPa 0,0 l/m 1,2 km/h O 2,0 C 10,2 C 1,0 km/h
Min-Datum 29.09.15 13.09.15 16.09.15 12 Tage 01.09.15 - 29.09.15 30.09.15 01.09.15
Min-Zeit 07:10 13:40 20:10 - 00:00 - 07:10 02:50 00:00
Minimum 2,6 C 35 % 997 hPa - 0,0 km/h - 0,3 C -2,2 C 0,0 km/h
Max-Datum 01.09.15 19.09.15 28.09.15 14.09.15 29.09.15 - 01.09.15 01.09.15 01.09.15
Max-Zeit 12:10 06:20 09:20 09:10 13:20 - 11:40 12:10 15:10
Maximum 33,2 C 88 % 1032 hPa 3,6 l/m 56,7 km/h
O
- 17,0 C 33,2 C 76,3 km/h
W-NW
Durchschnitt 13,9 C 72 % 1016 hPa #16,6 l/m 5,5 km/h O 8,5 C 12,8 C 5,3 km/h

Durchschnitt Minimum Temp.8,9 C
Durchschnitt Maximum Temp.21,4 C